createdAt,value
2024-01-31T00:03:25.495Z,6.13
2024-01-31T00:08:27.297Z,5.50
2024-01-31T00:13:29.417Z,5.43
2024-01-31T00:18:31.436Z,5.18
2024-01-31T00:23:33.400Z,5.57
2024-01-31T00:28:35.437Z,5.70
2024-01-31T00:33:37.363Z,5.45
2024-01-31T00:38:39.194Z,5.13
2024-01-31T00:43:41.273Z,4.97
2024-01-31T00:48:44.379Z,5.43
2024-01-31T00:53:46.303Z,4.80
2024-01-31T00:58:48.582Z,5.10
2024-01-31T01:03:50.544Z,6.32
2024-01-31T01:08:52.686Z,7.80
2024-01-31T01:13:54.510Z,8.52
2024-01-31T01:18:56.374Z,9.32
2024-01-31T01:23:58.209Z,10.02
2024-01-31T01:29:00.331Z,10.05
2024-01-31T01:34:02.313Z,10.48
2024-01-31T01:39:05.067Z,10.25
2024-01-31T01:44:06.887Z,10.82
2024-01-31T01:49:09.110Z,10.98
2024-01-31T01:54:13.846Z,10.35
2024-01-31T01:59:17.106Z,10.30
2024-01-31T02:04:22.001Z,11.98
2024-01-31T02:09:24.684Z,11.82
2024-01-31T02:14:26.570Z,8.48
2024-01-31T02:19:28.467Z,6.82
2024-01-31T02:24:30.593Z,6.80
2024-01-31T02:29:32.478Z,6.68
2024-01-31T02:34:34.943Z,7.03
2024-01-31T02:39:36.901Z,6.35
2024-01-31T02:44:38.748Z,7.10
2024-01-31T02:49:40.690Z,8.55
2024-01-31T02:54:42.712Z,9.88
2024-01-31T02:59:44.530Z,9.80
2024-01-31T03:04:46.479Z,10.05
2024-01-31T03:09:48.484Z,9.15
2024-01-31T03:14:50.310Z,10.25
2024-01-31T03:19:52.280Z,11.70
2024-01-31T03:24:54.178Z,10.30
2024-01-31T03:29:57.812Z,10.77
2024-01-31T03:35:00.432Z,10.70
2024-01-31T03:40:02.445Z,9.95
2024-01-31T03:45:05.802Z,10.48
2024-01-31T03:50:08.165Z,10.82
2024-01-31T03:55:11.607Z,11.32
2024-01-31T04:00:14.069Z,10.57
2024-01-31T04:05:17.795Z,11.55
2024-01-31T04:10:19.826Z,11.23
2024-01-31T04:15:21.758Z,11.00
2024-01-31T04:20:23.632Z,11.10
2024-01-31T04:25:25.578Z,10.88
2024-01-31T04:30:30.060Z,10.90
2024-01-31T04:35:32.648Z,9.90
2024-01-31T04:40:34.573Z,10.70
2024-01-31T04:45:36.514Z,10.60
2024-01-31T04:50:38.475Z,10.30
2024-01-31T04:55:40.568Z,11.13
2024-01-31T05:00:42.630Z,11.05
2024-01-31T05:05:44.667Z,11.20
2024-01-31T05:10:47.194Z,9.68
2024-01-31T05:15:49.035Z,9.15
2024-01-31T05:20:50.867Z,9.30
2024-01-31T05:25:52.812Z,8.93
2024-01-31T05:30:54.874Z,9.07
2024-01-31T05:35:59.138Z,9.48
2024-01-31T05:41:01.437Z,9.30
2024-01-31T05:46:03.309Z,8.85
2024-01-31T05:51:05.315Z,9.70
2024-01-31T05:56:07.862Z,10.27
2024-01-31T06:01:09.759Z,11.40
2024-01-31T06:06:11.736Z,11.43
2024-01-31T06:11:13.605Z,9.88
2024-01-31T06:16:16.320Z,8.77
2024-01-31T06:21:18.189Z,8.45
2024-01-31T06:26:20.037Z,7.90
2024-01-31T06:31:30.141Z,8.15
2024-01-31T06:36:32.103Z,7.60
2024-01-31T06:41:36.341Z,7.40
2024-01-31T06:46:38.704Z,7.70
2024-01-31T06:51:40.686Z,8.80
2024-01-31T06:56:42.521Z,9.02
2024-01-31T07:01:44.522Z,9.13
2024-01-31T07:06:46.450Z,8.85
2024-01-31T07:11:48.559Z,8.43
2024-01-31T07:16:50.390Z,8.25
2024-01-31T07:21:52.268Z,6.95
2024-01-31T07:26:54.232Z,6.65
2024-01-31T07:31:56.173Z,6.38
2024-01-31T07:36:58.075Z,5.35
2024-01-31T07:41:59.901Z,5.65
2024-01-31T07:47:04.586Z,5.72
2024-01-31T07:52:06.504Z,6.25
2024-01-31T07:57:08.337Z,5.78
2024-01-31T08:02:10.286Z,6.03
2024-01-31T08:07:13.923Z,5.50
2024-01-31T08:12:15.898Z,5.43
2024-01-31T08:17:17.964Z,6.03
2024-01-31T08:22:19.935Z,6.10
2024-01-31T08:27:21.852Z,6.10
2024-01-31T08:32:24.171Z,6.68
2024-01-31T08:37:26.006Z,6.07
2024-01-31T08:42:30.243Z,6.10
2024-01-31T08:47:32.283Z,6.35
2024-01-31T08:52:35.676Z,7.00
2024-01-31T08:57:37.713Z,6.72
2024-01-31T09:02:39.571Z,7.07
2024-01-31T09:07:41.526Z,7.43
2024-01-31T09:12:43.739Z,7.43
2024-01-31T09:17:47.553Z,7.72
2024-01-31T09:22:49.449Z,7.60
2024-01-31T09:27:51.453Z,7.10
2024-01-31T09:32:53.320Z,6.53
2024-01-31T09:37:55.390Z,6.65
2024-01-31T09:42:57.320Z,6.05
2024-01-31T09:48:00.595Z,7.28
2024-01-31T09:53:03.159Z,7.28
2024-01-31T09:58:05.210Z,6.68
2024-01-31T10:03:07.219Z,6.50
2024-01-31T10:08:09.279Z,5.97
2024-01-31T10:13:11.189Z,6.95
2024-01-31T10:18:14.043Z,6.10
2024-01-31T10:23:16.361Z,6.00
2024-01-31T10:28:21.316Z,6.28
2024-01-31T10:33:25.237Z,5.68
2024-01-31T10:38:27.606Z,5.93
2024-01-31T10:43:30.537Z,5.28
2024-01-31T10:48:32.573Z,5.30
2024-01-31T10:53:36.055Z,4.90
2024-01-31T10:58:38.254Z,4.47
2024-01-31T11:03:46.336Z,5.20
2024-01-31T11:08:48.980Z,5.32
2024-01-31T11:13:57.518Z,4.63
2024-01-31T11:19:00.362Z,4.80
2024-01-31T11:24:02.491Z,5.20
2024-01-31T11:29:04.696Z,5.18
2024-01-31T11:34:07.086Z,5.07
2024-01-31T11:39:09.289Z,5.63
2024-01-31T11:44:11.290Z,5.60
2024-01-31T11:49:16.038Z,6.40
2024-01-31T11:54:18.130Z,4.25
2024-01-31T11:59:20.175Z,4.93
2024-01-31T12:04:25.795Z,4.57
2024-01-31T12:09:28.052Z,4.60
2024-01-31T12:14:30.602Z,4.78
2024-01-31T12:19:32.552Z,4.68
2024-01-31T12:24:34.490Z,3.78
2024-01-31T12:29:40.333Z,5.10
2024-01-31T12:34:42.614Z,5.60
2024-01-31T12:39:44.930Z,5.38
2024-01-31T12:44:47.283Z,5.70
2024-01-31T12:49:49.219Z,6.00
2024-01-31T12:54:53.260Z,5.30
2024-01-31T12:59:55.134Z,5.15
2024-01-31T13:04:57.452Z,4.25
2024-01-31T13:09:59.812Z,4.32
2024-01-31T13:15:02.018Z,5.35
2024-01-31T13:20:04.466Z,5.20
2024-01-31T13:25:07.139Z,5.07
2024-01-31T13:30:13.035Z,4.88
2024-01-31T13:35:15.288Z,5.93
2024-01-31T13:40:17.211Z,5.18
2024-01-31T13:45:20.318Z,4.75
2024-01-31T13:50:22.234Z,5.07
2024-01-31T13:55:24.069Z,5.65
2024-01-31T14:00:25.935Z,5.57
2024-01-31T14:05:27.861Z,4.63
2024-01-31T14:10:29.736Z,5.70
2024-01-31T14:15:31.712Z,4.80
2024-01-31T14:20:38.371Z,4.32
2024-01-31T14:25:40.750Z,4.97
2024-01-31T14:30:42.554Z,4.70
2024-01-31T14:35:44.769Z,4.15
2024-01-31T14:40:46.678Z,3.50
2024-01-31T14:45:48.698Z,4.15
2024-01-31T14:50:50.677Z,5.65
2024-01-31T14:55:53.267Z,6.35
2024-01-31T15:00:55.392Z,3.45
2024-01-31T15:05:57.951Z,2.45
2024-01-31T15:11:00.086Z,3.10
2024-01-31T15:16:05.245Z,2.35
2024-01-31T15:21:07.400Z,2.30
2024-01-31T15:26:10.239Z,2.47
2024-01-31T15:31:12.946Z,3.45
2024-01-31T15:36:15.820Z,3.58
2024-01-31T15:41:18.394Z,2.80
2024-01-31T15:46:21.207Z,2.92
2024-01-31T15:51:26.332Z,2.40
2024-01-31T15:56:28.286Z,3.35
2024-01-31T16:01:32.656Z,2.38
2024-01-31T16:06:39.922Z,2.53
2024-01-31T16:11:42.960Z,3.40
2024-01-31T16:16:45.076Z,3.28
2024-01-31T16:21:49.919Z,2.38
2024-01-31T16:26:52.079Z,2.47
2024-01-31T16:31:54.038Z,3.17
2024-01-31T16:36:55.958Z,3.20
2024-01-31T16:41:57.889Z,3.60
2024-01-31T16:46:59.700Z,3.15
2024-01-31T16:52:01.537Z,3.05
2024-01-31T16:57:05.572Z,2.92
2024-01-31T17:02:07.590Z,4.13
2024-01-31T17:07:10.497Z,4.80
2024-01-31T17:12:12.403Z,5.10
2024-01-31T17:17:14.467Z,4.15
2024-01-31T17:22:16.350Z,3.97
2024-01-31T17:27:18.301Z,3.85
2024-01-31T17:32:20.138Z,4.35
2024-01-31T17:37:22.018Z,5.47
2024-01-31T17:42:23.998Z,4.93
2024-01-31T17:47:25.927Z,4.75
2024-01-31T17:52:27.824Z,5.18
2024-01-31T17:57:29.645Z,5.53
2024-01-31T18:02:32.978Z,5.05
2024-01-31T18:07:34.849Z,3.72
2024-01-31T18:12:36.912Z,4.15
2024-01-31T18:17:38.843Z,4.60
2024-01-31T18:22:40.772Z,4.93
2024-01-31T18:27:42.840Z,5.15
2024-01-31T18:32:44.790Z,4.43
2024-01-31T18:37:46.674Z,6.28
2024-01-31T18:42:48.521Z,6.65
2024-01-31T18:47:50.816Z,4.20
2024-01-31T18:52:52.771Z,4.60
2024-01-31T18:57:54.903Z,4.90
2024-01-31T19:02:57.971Z,4.72
2024-01-31T19:07:59.957Z,6.68
2024-01-31T19:13:02.756Z,4.85
2024-01-31T19:18:11.582Z,6.43
2024-01-31T19:23:14.685Z,5.40
2024-01-31T19:28:16.525Z,5.80
2024-01-31T19:33:18.686Z,6.85
2024-01-31T19:38:21.973Z,7.20
2024-01-31T19:43:24.014Z,6.32
2024-01-31T19:48:26.629Z,6.10
2024-01-31T19:53:30.581Z,5.43
2024-01-31T19:58:33.209Z,5.35
2024-01-31T20:03:38.489Z,5.85
2024-01-31T20:08:40.640Z,5.05
2024-01-31T20:13:42.928Z,5.03
2024-01-31T20:18:46.577Z,5.43
2024-01-31T20:23:49.948Z,5.78
2024-01-31T20:28:53.788Z,5.00
2024-01-31T20:33:57.101Z,4.40
2024-01-31T20:38:59.059Z,5.32
2024-01-31T20:44:01.557Z,5.88
2024-01-31T20:49:04.004Z,4.93
2024-01-31T20:54:06.149Z,5.47
2024-01-31T20:59:08.173Z,4.65
2024-01-31T21:04:10.164Z,5.85
2024-01-31T21:09:12.159Z,6.35
2024-01-31T21:14:15.340Z,4.97
2024-01-31T21:19:17.618Z,5.15
2024-01-31T21:24:19.870Z,4.43
2024-01-31T21:29:21.795Z,4.78
2024-01-31T21:34:23.630Z,4.18
2024-01-31T21:39:25.639Z,4.20
2024-01-31T21:44:27.941Z,4.05
2024-01-31T21:49:29.770Z,3.72
2024-01-31T21:54:31.644Z,4.57
2024-01-31T21:59:33.525Z,3.58
2024-01-31T22:04:35.595Z,4.60
2024-01-31T22:09:37.549Z,4.32
2024-01-31T22:14:42.294Z,4.63
2024-01-31T22:19:44.375Z,3.72
2024-01-31T22:24:46.314Z,3.90
2024-01-31T22:29:48.373Z,3.75
2024-01-31T22:34:50.329Z,3.50
2024-01-31T22:39:52.221Z,3.28
2024-01-31T22:44:54.093Z,2.92
2024-01-31T22:49:55.986Z,3.40
2024-01-31T22:55:01.447Z,3.28
2024-01-31T23:00:07.809Z,3.47
2024-01-31T23:05:09.785Z,3.58
2024-01-31T23:10:11.667Z,3.25
2024-01-31T23:15:13.971Z,3.50
2024-01-31T23:20:16.150Z,3.83
2024-01-31T23:25:17.963Z,3.40
2024-01-31T23:30:19.907Z,3.40
2024-01-31T23:35:22.037Z,3.53
2024-01-31T23:40:23.963Z,3.10
2024-01-31T23:45:25.862Z,3.63
2024-01-31T23:50:27.827Z,3.95
2024-01-31T23:55:29.683Z,4.07
